sensor_id;sensor_type;location;lat;lon;timestamp;temperature;humidity
70151;DHT22;57517;43.562;19.540;2024-02-26T00:02:16;307.20;2252.80
70151;DHT22;57517;43.562;19.540;2024-02-26T00:04:42;307.30;2227.20
70151;DHT22;57517;43.562;19.540;2024-02-26T00:07:08;307.30;2227.20
70151;DHT22;57517;43.562;19.540;2024-02-26T00:09:34;282.50;2227.20
70151;DHT22;57517;43.562;19.540;2024-02-26T00:12:03;282.30;2278.40
70151;DHT22;57517;43.562;19.540;2024-02-26T00:14:30;282.10;2278.40
70151;DHT22;57517;43.562;19.540;2024-02-26T00:16:56;282.00;2278.40
70151;DHT22;57517;43.562;19.540;2024-02-26T00:19:22;281.80;2278.40
70151;DHT22;57517;43.562;19.540;2024-02-26T00:21:48;281.80;2278.40
70151;DHT22;57517;43.562;19.540;2024-02-26T00:24:14;281.90;2278.40
70151;DHT22;57517;43.562;19.540;2024-02-26T00:26:40;282.10;2278.40
70151;DHT22;57517;43.562;19.540;2024-02-26T00:29:06;282.20;2278.40
70151;DHT22;57517;43.562;19.540;2024-02-26T00:31:31;282.20;2278.40
70151;DHT22;57517;43.562;19.540;2024-02-26T00:33:57;282.30;2278.40
70151;DHT22;57517;43.562;19.540;2024-02-26T00:36:23;282.30;2278.40
70151;DHT22;57517;43.562;19.540;2024-02-26T00:38:49;282.40;2278.40
70151;DHT22;57517;43.562;19.540;2024-02-26T00:41:20;282.40;2252.80
70151;DHT22;57517;43.562;19.540;2024-02-26T00:43:46;282.40;2278.40
70151;DHT22;57517;43.562;19.540;2024-02-26T00:46:12;282.20;2278.40
70151;DHT22;57517;43.562;19.540;2024-02-26T00:48:38;282.30;2278.40
70151;DHT22;57517;43.562;19.540;2024-02-26T00:51:05;282.40;2278.40
70151;DHT22;57517;43.562;19.540;2024-02-26T00:53:31;307.20;2278.40
70151;DHT22;57517;43.562;19.540;2024-02-26T00:55:57;282.50;2252.80
70151;DHT22;57517;43.562;19.540;2024-02-26T00:58:27;282.50;2252.80
70151;DHT22;57517;43.562;19.540;2024-02-26T01:00:53;282.40;2278.40
70151;DHT22;57517;43.562;19.540;2024-02-26T01:03:19;282.50;2252.80
70151;DHT22;57517;43.562;19.540;2024-02-26T01:05:45;282.40;2278.40
70151;DHT22;57517;43.562;19.540;2024-02-26T01:08:11;282.30;2278.40
70151;DHT22;57517;43.562;19.540;2024-02-26T01:10:36;282.30;2278.40
70151;DHT22;57517;43.562;19.540;2024-02-26T01:13:02;282.40;2278.40
70151;DHT22;57517;43.562;19.540;2024-02-26T01:15:28;282.40;2278.40
70151;DHT22;57517;43.562;19.540;2024-02-26T01:17:54;282.30;2278.40
70151;DHT22;57517;43.562;19.540;2024-02-26T01:20:20;282.40;2278.40
70151;DHT22;57517;43.562;19.540;2024-02-26T01:22:46;282.30;2278.40
70151;DHT22;57517;43.562;19.540;2024-02-26T01:25:12;282.50;2278.40
70151;DHT22;57517;43.562;19.540;2024-02-26T01:27:39;307.20;2278.40
70151;DHT22;57517;43.562;19.540;2024-02-26T01:30:07;307.20;2278.40
70151;DHT22;57517;43.562;19.540;2024-02-26T01:32:33;282.40;2278.40
70151;DHT22;57517;43.562;19.540;2024-02-26T01:34:58;282.50;2278.40
70151;DHT22;57517;43.562;19.540;2024-02-26T01:37:25;282.50;2278.40
70151;DHT22;57517;43.562;19.540;2024-02-26T01:39:51;282.50;2278.40
70151;DHT22;57517;43.562;19.540;2024-02-26T01:42:16;282.40;2278.40
70151;DHT22;57517;43.562;19.540;2024-02-26T01:44:42;282.30;2278.40
70151;DHT22;57517;43.562;19.540;2024-02-26T01:47:11;282.20;2278.40
70151;DHT22;57517;43.562;19.540;2024-02-26T01:49:37;282.30;2278.40
70151;DHT22;57517;43.562;19.540;2024-02-26T01:52:06;282.20;2278.40
70151;DHT22;57517;43.562;19.540;2024-02-26T01:54:37;282.10;2278.40
70151;DHT22;57517;43.562;19.540;2024-02-26T01:57:05;282.20;2278.40
70151;DHT22;57517;43.562;19.540;2024-02-26T01:59:32;282.20;2278.40
70151;DHT22;57517;43.562;19.540;2024-02-26T02:01:59;282.30;2278.40
70151;DHT22;57517;43.562;19.540;2024-02-26T02:04:27;282.10;2278.40
70151;DHT22;57517;43.562;19.540;2024-02-26T02:06:53;282.00;2278.40
70151;DHT22;57517;43.562;19.540;2024-02-26T02:09:20;281.90;2278.40
70151;DHT22;57517;43.562;19.540;2024-02-26T02:11:47;282.00;2278.40
70151;DHT22;57517;43.562;19.540;2024-02-26T02:14:14;282.10;2278.40
70151;DHT22;57517;43.562;19.540;2024-02-26T02:16:40;282.10;2278.40
70151;DHT22;57517;43.562;19.540;2024-02-26T02:19:06;282.20;2278.40
70151;DHT22;57517;43.562;19.540;2024-02-26T02:21:31;282.10;2278.40
70151;DHT22;57517;43.562;19.540;2024-02-26T02:23:57;282.00;2278.40
70151;DHT22;57517;43.562;19.540;2024-02-26T02:26:23;282.10;2278.40
70151;DHT22;57517;43.562;19.540;2024-02-26T02:28:49;282.10;2278.40
70151;DHT22;57517;43.562;19.540;2024-02-26T02:31:15;282.20;2278.40
70151;DHT22;57517;43.562;19.540;2024-02-26T02:33:41;282.20;2278.40
70151;DHT22;57517;43.562;19.540;2024-02-26T02:36:07;282.20;2278.40
70151;DHT22;57517;43.562;19.540;2024-02-26T02:38:36;282.10;2278.40
70151;DHT22;57517;43.562;19.540;2024-02-26T02:41:02;282.10;2278.40
70151;DHT22;57517;43.562;19.540;2024-02-26T02:43:28;281.90;2278.40
70151;DHT22;57517;43.562;19.540;2024-02-26T02:45:54;281.80;2278.40
70151;DHT22;57517;43.562;19.540;2024-02-26T02:48:19;281.70;2278.40
70151;DHT22;57517;43.562;19.540;2024-02-26T02:50:45;256.70;2252.80
70151;DHT22;57517;43.562;19.540;2024-02-26T02:53:11;256.70;2252.80
70151;DHT22;57517;43.562;19.540;2024-02-26T02:55:37;256.90;2252.80
70151;DHT22;57517;43.562;19.540;2024-02-26T02:58:03;256.90;2252.80
70151;DHT22;57517;43.562;19.540;2024-02-26T03:00:28;281.60;2278.40
70151;DHT22;57517;43.562;19.540;2024-02-26T03:02:54;281.90;2278.40
70151;DHT22;57517;43.562;19.540;2024-02-26T03:05:20;281.80;2278.40
70151;DHT22;57517;43.562;19.540;2024-02-26T03:07:46;281.90;2278.40
70151;DHT22;57517;43.562;19.540;2024-02-26T03:10:12;282.00;2278.40
70151;DHT22;57517;43.562;19.540;2024-02-26T03:12:37;281.70;2278.40
70151;DHT22;57517;43.562;19.540;2024-02-26T03:15:03;281.60;2278.40
70151;DHT22;57517;43.562;19.540;2024-02-26T03:17:30;281.70;2278.40
70151;DHT22;57517;43.562;19.540;2024-02-26T03:19:55;281.60;2278.40
70151;DHT22;57517;43.562;19.540;2024-02-26T03:22:21;281.60;2278.40
70151;DHT22;57517;43.562;19.540;2024-02-26T03:24:47;256.90;2252.80
70151;DHT22;57517;43.562;19.540;2024-02-26T03:27:13;281.60;2278.40
70151;DHT22;57517;43.562;19.540;2024-02-26T03:29:40;281.70;2278.40
70151;DHT22;57517;43.562;19.540;2024-02-26T03:32:06;281.80;2278.40
70151;DHT22;57517;43.562;19.540;2024-02-26T03:34:32;281.80;2278.40
70151;DHT22;57517;43.562;19.540;2024-02-26T03:37:01;281.70;2278.40
70151;DHT22;57517;43.562;19.540;2024-02-26T03:39:27;281.70;2278.40
70151;DHT22;57517;43.562;19.540;2024-02-26T03:41:53;281.60;2278.40
70151;DHT22;57517;43.562;19.540;2024-02-26T03:44:19;256.90;2252.80
70151;DHT22;57517;43.562;19.540;2024-02-26T03:46:45;256.90;2252.80
70151;DHT22;57517;43.562;19.540;2024-02-26T03:49:11;256.70;2252.80
70151;DHT22;57517;43.562;19.540;2024-02-26T03:51:38;256.40;2252.80
70151;DHT22;57517;43.562;19.540;2024-02-26T03:54:04;256.40;2252.80
70151;DHT22;57517;43.562;19.540;2024-02-26T03:56:30;256.20;2252.80
70151;DHT22;57517;43.562;19.540;2024-02-26T03:58:56;256.30;2252.80
70151;DHT22;57517;43.562;19.540;2024-02-26T04:01:22;256.40;2252.80
70151;DHT22;57517;43.562;19.540;2024-02-26T04:03:47;256.50;2252.80
70151;DHT22;57517;43.562;19.540;2024-02-26T04:06:13;256.50;2252.80
70151;DHT22;57517;43.562;19.540;2024-02-26T04:08:45;256.40;2252.80
70151;DHT22;57517;43.562;19.540;2024-02-26T04:11:10;256.20;2252.80
70151;DHT22;57517;43.562;19.540;2024-02-26T04:13:37;256.10;2252.80
70151;DHT22;57517;43.562;19.540;2024-02-26T04:16:06;256.30;2252.80
70151;DHT22;57517;43.562;19.540;2024-02-26T04:18:32;256.20;2252.80
70151;DHT22;57517;43.562;19.540;2024-02-26T04:20:58;256.30;2252.80
70151;DHT22;57517;43.562;19.540;2024-02-26T04:23:24;256.20;2252.80
70151;DHT22;57517;43.562;19.540;2024-02-26T04:25:50;256.20;2252.80
70151;DHT22;57517;43.562;19.540;2024-02-26T04:28:19;256.10;2252.80
70151;DHT22;57517;43.562;19.540;2024-02-26T04:30:47;256.10;2252.80
70151;DHT22;57517;43.562;19.540;2024-02-26T04:33:13;256.00;2252.80
70151;DHT22;57517;43.562;19.540;2024-02-26T04:35:39;231.30;2252.80
70151;DHT22;57517;43.562;19.540;2024-02-26T04:38:05;231.30;2252.80
70151;DHT22;57517;43.562;19.540;2024-02-26T04:40:31;256.00;2252.80
70151;DHT22;57517;43.562;19.540;2024-02-26T04:42:57;231.30;2252.80
70151;DHT22;57517;43.562;19.540;2024-02-26T04:45:22;256.00;2252.80
70151;DHT22;57517;43.562;19.540;2024-02-26T04:47:48;256.10;2252.80
70151;DHT22;57517;43.562;19.540;2024-02-26T04:50:14;256.10;2252.80
70151;DHT22;57517;43.562;19.540;2024-02-26T04:52:41;256.10;2252.80
70151;DHT22;57517;43.562;19.540;2024-02-26T04:55:07;256.00;2252.80
70151;DHT22;57517;43.562;19.540;2024-02-26T04:57:33;256.00;2252.80
70151;DHT22;57517;43.562;19.540;2024-02-26T04:59:58;256.00;2252.80
70151;DHT22;57517;43.562;19.540;2024-02-26T05:02:24;231.30;2252.80
70151;DHT22;57517;43.562;19.540;2024-02-26T05:04:50;231.30;2252.80
70151;DHT22;57517;43.562;19.540;2024-02-26T05:07:16;231.30;2252.80
70151;DHT22;57517;43.562;19.540;2024-02-26T05:09:44;231.20;2252.80
70151;DHT22;57517;43.562;19.540;2024-02-26T05:12:10;231.20;2252.80
70151;DHT22;57517;43.562;19.540;2024-02-26T05:14:36;231.10;2252.80
70151;DHT22;57517;43.562;19.540;2024-02-26T05:17:02;231.10;2252.80
70151;DHT22;57517;43.562;19.540;2024-02-26T05:19:27;231.00;2252.80
70151;DHT22;57517;43.562;19.540;2024-02-26T05:21:53;230.90;2252.80
70151;DHT22;57517;43.562;19.540;2024-02-26T05:24:19;230.80;2252.80
70151;DHT22;57517;43.562;19.540;2024-02-26T05:26:48;230.80;2252.80
70151;DHT22;57517;43.562;19.540;2024-02-26T05:29:14;230.80;2252.80
70151;DHT22;57517;43.562;19.540;2024-02-26T05:31:42;230.90;2252.80
70151;DHT22;57517;43.562;19.540;2024-02-26T05:34:08;230.80;2252.80
70151;DHT22;57517;43.562;19.540;2024-02-26T05:36:34;230.90;2252.80
70151;DHT22;57517;43.562;19.540;2024-02-26T05:39:00;230.70;2252.80
70151;DHT22;57517;43.562;19.540;2024-02-26T05:41:26;230.60;2252.80
70151;DHT22;57517;43.562;19.540;2024-02-26T05:43:53;230.70;2252.80
70151;DHT22;57517;43.562;19.540;2024-02-26T05:46:19;230.70;2252.80
70151;DHT22;57517;43.562;19.540;2024-02-26T05:48:48;230.70;2252.80
70151;DHT22;57517;43.562;19.540;2024-02-26T05:51:14;230.60;2252.80
70151;DHT22;57517;43.562;19.540;2024-02-26T05:53:41;230.80;2252.80
70151;DHT22;57517;43.562;19.540;2024-02-26T05:56:06;230.70;2252.80
70151;DHT22;57517;43.562;19.540;2024-02-26T05:58:32;230.60;2252.80
70151;DHT22;57517;43.562;19.540;2024-02-26T06:00:58;230.40;2252.80
70151;DHT22;57517;43.562;19.540;2024-02-26T06:03:26;230.40;2252.80
70151;DHT22;57517;43.562;19.540;2024-02-26T06:05:51;230.50;2252.80
70151;DHT22;57517;43.562;19.540;2024-02-26T06:08:17;230.60;2252.80
70151;DHT22;57517;43.562;19.540;2024-02-26T06:10:43;230.60;2252.80
70151;DHT22;57517;43.562;19.540;2024-02-26T06:13:09;230.70;2252.80
70151;DHT22;57517;43.562;19.540;2024-02-26T06:15:34;230.90;2252.80
70151;DHT22;57517;43.562;19.540;2024-02-26T06:18:00;230.90;2252.80
70151;DHT22;57517;43.562;19.540;2024-02-26T06:20:26;231.00;2252.80
70151;DHT22;57517;43.562;19.540;2024-02-26T06:22:52;231.00;2252.80
70151;DHT22;57517;43.562;19.540;2024-02-26T06:25:18;231.00;2252.80
70151;DHT22;57517;43.562;19.540;2024-02-26T06:27:43;231.30;2252.80
70151;DHT22;57517;43.562;19.540;2024-02-26T06:30:09;256.10;2252.80
70151;DHT22;57517;43.562;19.540;2024-02-26T06:32:37;256.40;2252.80
70151;DHT22;57517;43.562;19.540;2024-02-26T06:35:03;281.90;2201.60
70151;DHT22;57517;43.562;19.540;2024-02-26T06:37:34;307.40;2048.00
70151;DHT22;57517;43.562;19.540;2024-02-26T06:40:00;308.00;1920.00
70151;DHT22;57517;43.562;19.540;2024-02-26T06:42:29;333.00;1843.20
70151;DHT22;57517;43.562;19.540;2024-02-26T06:44:56;333.70;1792.00
70151;DHT22;57517;43.562;19.540;2024-02-26T06:47:22;358.80;1689.60
70151;DHT22;57517;43.562;19.540;2024-02-26T06:49:47;384.10;1638.40
70151;DHT22;57517;43.562;19.540;2024-02-26T06:52:13;384.50;1561.60
70151;DHT22;57517;43.562;19.540;2024-02-26T06:54:40;409.80;1536.00
70151;DHT22;57517;43.562;19.540;2024-02-26T06:57:07;435.30;1459.20
70151;DHT22;57517;43.562;19.540;2024-02-26T06:59:33;436.10;1382.40
70151;DHT22;57517;43.562;19.540;2024-02-26T07:01:58;435.40;1408.00
70151;DHT22;57517;43.562;19.540;2024-02-26T07:04:24;436.10;1356.80
70151;DHT22;57517;43.562;19.540;2024-02-26T07:06:50;460.80;1382.40
70151;DHT22;57517;43.562;19.540;2024-02-26T07:09:16;461.40;1356.80
70151;DHT22;57517;43.562;19.540;2024-02-26T07:11:42;461.00;1356.80
70151;DHT22;57517;43.562;19.540;2024-02-26T07:14:12;461.60;1331.20
70151;DHT22;57517;43.562;19.540;2024-02-26T07:16:38;487.10;1305.60
70151;DHT22;57517;43.562;19.540;2024-02-26T07:19:04;487.20;1254.40
70151;DHT22;57517;43.562;19.540;2024-02-26T07:21:30;487.30;1254.40
70151;DHT22;57517;43.562;19.540;2024-02-26T07:23:56;512.80;1177.60
70151;DHT22;57517;43.562;19.540;2024-02-26T07:26:21;563.20;1177.60
70151;DHT22;57517;43.562;19.540;2024-02-26T07:28:50;538.50;1280.00
70151;DHT22;57517;43.562;19.540;2024-02-26T07:31:17;563.40;1280.00
70151;DHT22;57517;43.562;19.540;2024-02-26T07:33:42;563.90;1203.20
70151;DHT22;57517;43.562;19.540;2024-02-26T07:36:08;563.60;1177.60
70151;DHT22;57517;43.562;19.540;2024-02-26T07:38:34;563.80;1152.00
70151;DHT22;57517;43.562;19.540;2024-02-26T07:41:02;589.10;1152.00
70151;DHT22;57517;43.562;19.540;2024-02-26T07:43:28;589.40;1100.80
70151;DHT22;57517;43.562;19.540;2024-02-26T07:45:54;614.60;1100.80
70151;DHT22;57517;43.562;19.540;2024-02-26T07:48:20;615.20;1049.60
70151;DHT22;57517;43.562;19.540;2024-02-26T07:50:45;640.40;972.80
70151;DHT22;57517;43.562;19.540;2024-02-26T07:53:11;666.20;947.20
70151;DHT22;57517;43.562;19.540;2024-02-26T07:55:37;717.10;947.20
70151;DHT22;57517;43.562;19.540;2024-02-26T07:58:03;742.50;870.40
70151;DHT22;57517;43.562;19.540;2024-02-26T08:00:29;742.70;844.80
70151;DHT22;57517;43.562;19.540;2024-02-26T08:02:54;743.30;819.20
70151;DHT22;57517;43.562;19.540;2024-02-26T08:05:20;768.70;793.60
70151;DHT22;57517;43.562;19.540;2024-02-26T08:07:46;793.90;793.60
70151;DHT22;57517;43.562;19.540;2024-02-26T08:10:12;819.40;768.00
70151;DHT22;57517;43.562;19.540;2024-02-26T08:12:38;845.40;742.40
70151;DHT22;57517;43.562;19.540;2024-02-26T08:17:30;896.20;665.60
70151;DHT22;57517;43.562;19.540;2024-02-26T08:19:56;896.90;640.00
70151;DHT22;57517;43.562;19.540;2024-02-26T09:11:14;1101.60;486.40
70151;DHT22;57517;43.562;19.540;2024-02-26T10:34:35;998.60;537.60
70151;DHT22;57517;43.562;19.540;2024-02-26T10:37:04;871.20;614.40
70151;DHT22;57517;43.562;19.540;2024-02-26T10:39:30;819.70;665.60
70151;DHT22;57517;43.562;19.540;2024-02-26T10:41:56;768.60;691.20
70151;DHT22;57517;43.562;19.540;2024-02-26T10:44:22;742.40;768.00
70151;DHT22;57517;43.562;19.540;2024-02-26T10:46:48;717.20;768.00
70151;DHT22;57517;43.562;19.540;2024-02-26T10:49:16;666.30;819.20
70151;DHT22;57517;43.562;19.540;2024-02-26T10:51:45;640.80;819.20
70151;DHT22;57517;43.562;19.540;2024-02-26T10:54:16;640.20;844.80
70151;DHT22;57517;43.562;19.540;2024-02-26T10:56:42;640.00;870.40
70151;DHT22;57517;43.562;19.540;2024-02-26T10:59:12;640.00;870.40
70151;DHT22;57517;43.562;19.540;2024-02-26T11:01:39;615.10;896.00
70151;DHT22;57517;43.562;19.540;2024-02-26T11:04:08;615.20;896.00
70151;DHT22;57517;43.562;19.540;2024-02-26T11:06:35;614.90;896.00
70151;DHT22;57517;43.562;19.540;2024-02-26T11:09:02;615.30;896.00
70151;DHT22;57517;43.562;19.540;2024-02-26T11:11:32;615.00;896.00
70151;DHT22;57517;43.562;19.540;2024-02-26T11:14:01;614.90;921.60
70151;DHT22;57517;43.562;19.540;2024-02-26T11:16:29;614.60;921.60
70151;DHT22;57517;43.562;19.540;2024-02-26T11:18:55;614.60;921.60
70151;DHT22;57517;43.562;19.540;2024-02-26T11:21:23;614.60;896.00
70151;DHT22;57517;43.562;19.540;2024-02-26T11:24:12;589.60;921.60
70151;DHT22;57517;43.562;19.540;2024-02-26T11:26:58;589.50;921.60
70151;DHT22;57517;43.562;19.540;2024-02-26T11:29:40;614.40;921.60
70151;DHT22;57517;43.562;19.540;2024-02-26T11:32:07;614.60;896.00
70151;DHT22;57517;43.562;19.540;2024-02-26T11:34:33;614.60;896.00
70151;DHT22;57517;43.562;19.540;2024-02-26T11:37:12;614.60;896.00
70151;DHT22;57517;43.562;19.540;2024-02-26T11:39:42;614.50;921.60
70151;DHT22;57517;43.562;19.540;2024-02-26T11:42:08;614.70;896.00
70151;DHT22;57517;43.562;19.540;2024-02-26T11:44:35;614.70;896.00
70151;DHT22;57517;43.562;19.540;2024-02-26T11:47:28;614.60;896.00
70151;DHT22;57517;43.562;19.540;2024-02-26T11:49:54;614.60;896.00
70151;DHT22;57517;43.562;19.540;2024-02-26T11:52:20;614.60;896.00
70151;DHT22;57517;43.562;19.540;2024-02-26T11:54:51;614.50;896.00
70151;DHT22;57517;43.562;19.540;2024-02-26T12:00:13;589.50;896.00
70151;DHT22;57517;43.562;19.540;2024-02-26T12:05:19;589.30;921.60
70151;DHT22;57517;43.562;19.540;2024-02-26T12:07:47;589.40;921.60
70151;DHT22;57517;43.562;19.540;2024-02-26T12:12:42;589.10;921.60
70151;DHT22;57517;43.562;19.540;2024-02-26T12:15:08;588.90;921.60
70151;DHT22;57517;43.562;19.540;2024-02-26T12:17:34;564.10;947.20
70151;DHT22;57517;43.562;19.540;2024-02-26T12:20:11;564.10;947.20
70151;DHT22;57517;43.562;19.540;2024-02-26T12:22:40;564.10;947.20
70151;DHT22;57517;43.562;19.540;2024-02-26T12:25:08;563.90;947.20
70151;DHT22;57517;43.562;19.540;2024-02-26T12:27:35;563.90;947.20
70151;DHT22;57517;43.562;19.540;2024-02-26T12:30:02;563.70;972.80
70151;DHT22;57517;43.562;19.540;2024-02-26T12:32:28;563.60;972.80
70151;DHT22;57517;43.562;19.540;2024-02-26T12:34:54;563.70;972.80
70151;DHT22;57517;43.562;19.540;2024-02-26T12:37:20;563.90;972.80
70151;DHT22;57517;43.562;19.540;2024-02-26T12:39:46;563.80;972.80
70151;DHT22;57517;43.562;19.540;2024-02-26T12:42:12;563.70;972.80
70151;DHT22;57517;43.562;19.540;2024-02-26T12:44:38;563.60;972.80
70151;DHT22;57517;43.562;19.540;2024-02-26T12:47:04;563.40;998.40
70151;DHT22;57517;43.562;19.540;2024-02-26T12:49:30;563.40;972.80
70151;DHT22;57517;43.562;19.540;2024-02-26T12:51:56;563.40;972.80
70151;DHT22;57517;43.562;19.540;2024-02-26T12:54:30;563.20;947.20
70151;DHT22;57517;43.562;19.540;2024-02-26T12:57:00;563.20;947.20
70151;DHT22;57517;43.562;19.540;2024-02-26T12:59:28;538.40;921.60
70151;DHT22;57517;43.562;19.540;2024-02-26T13:01:54;538.30;921.60
70151;DHT22;57517;43.562;19.540;2024-02-26T13:04:20;538.20;896.00
70151;DHT22;57517;43.562;19.540;2024-02-26T13:06:46;538.10;921.60
70151;DHT22;57517;43.562;19.540;2024-02-26T13:09:15;538.00;921.60
70151;DHT22;57517;43.562;19.540;2024-02-26T13:11:43;538.20;921.60
70151;DHT22;57517;43.562;19.540;2024-02-26T13:14:22;538.20;921.60
70151;DHT22;57517;43.562;19.540;2024-02-26T13:16:58;538.30;896.00
70151;DHT22;57517;43.562;19.540;2024-02-26T13:19:24;538.40;896.00
70151;DHT22;57517;43.562;19.540;2024-02-26T13:21:50;538.40;896.00
70151;DHT22;57517;43.562;19.540;2024-02-26T13:24:16;538.50;896.00
70151;DHT22;57517;43.562;19.540;2024-02-26T13:26:43;563.30;921.60
70151;DHT22;57517;43.562;19.540;2024-02-26T13:29:19;563.50;896.00
70151;DHT22;57517;43.562;19.540;2024-02-26T13:31:45;563.60;896.00
70151;DHT22;57517;43.562;19.540;2024-02-26T13:34:23;563.50;896.00
70151;DHT22;57517;43.562;19.540;2024-02-26T13:36:50;563.40;921.60
70151;DHT22;57517;43.562;19.540;2024-02-26T13:39:25;563.20;921.60
70151;DHT22;57517;43.562;19.540;2024-02-26T13:41:51;538.50;896.00
70151;DHT22;57517;43.562;19.540;2024-02-26T13:44:19;538.40;870.40
70151;DHT22;57517;43.562;19.540;2024-02-26T13:46:44;538.50;870.40
70151;DHT22;57517;43.562;19.540;2024-02-26T13:49:10;538.40;896.00
70151;DHT22;57517;43.562;19.540;2024-02-26T13:51:38;538.50;896.00
70151;DHT22;57517;43.562;19.540;2024-02-26T13:54:03;538.50;896.00
70151;DHT22;57517;43.562;19.540;2024-02-26T13:56:30;538.30;896.00
70151;DHT22;57517;43.562;19.540;2024-02-26T13:58:56;538.30;921.60
70151;DHT22;57517;43.562;19.540;2024-02-26T14:01:22;538.30;921.60
70151;DHT22;57517;43.562;19.540;2024-02-26T14:03:48;538.30;921.60
70151;DHT22;57517;43.562;19.540;2024-02-26T14:06:14;538.20;896.00
70151;DHT22;57517;43.562;19.540;2024-02-26T14:08:40;538.20;896.00
70151;DHT22;57517;43.562;19.540;2024-02-26T14:11:06;538.20;921.60
70151;DHT22;57517;43.562;19.540;2024-02-26T14:13:31;538.20;921.60
70151;DHT22;57517;43.562;19.540;2024-02-26T14:15:57;538.10;921.60
70151;DHT22;57517;43.562;19.540;2024-02-26T14:18:23;538.10;921.60
70151;DHT22;57517;43.562;19.540;2024-02-26T14:20:49;537.90;921.60
70151;DHT22;57517;43.562;19.540;2024-02-26T14:23:15;537.90;921.60
70151;DHT22;57517;43.562;19.540;2024-02-26T14:25:41;537.80;972.80
70151;DHT22;57517;43.562;19.540;2024-02-26T14:28:07;537.80;972.80
70151;DHT22;57517;43.562;19.540;2024-02-26T14:30:33;537.80;972.80
70151;DHT22;57517;43.562;19.540;2024-02-26T14:32:58;537.80;972.80
70151;DHT22;57517;43.562;19.540;2024-02-26T14:35:24;537.80;998.40
70151;DHT22;57517;43.562;19.540;2024-02-26T14:37:52;537.80;1024.00
70151;DHT22;57517;43.562;19.540;2024-02-26T14:40:18;537.80;1024.00
70151;DHT22;57517;43.562;19.540;2024-02-26T14:42:44;537.80;1024.00
70151;DHT22;57517;43.562;19.540;2024-02-26T14:45:10;537.90;1024.00
70151;DHT22;57517;43.562;19.540;2024-02-26T14:47:37;537.80;1049.60
70151;DHT22;57517;43.562;19.540;2024-02-26T14:50:03;537.80;1024.00
70151;DHT22;57517;43.562;19.540;2024-02-26T14:52:30;537.70;1075.20
70151;DHT22;57517;43.562;19.540;2024-02-26T14:54:56;537.60;1100.80
70151;DHT22;57517;43.562;19.540;2024-02-26T14:57:24;537.60;1100.80
70151;DHT22;57517;43.562;19.540;2024-02-26T14:59:50;537.60;1100.80
70151;DHT22;57517;43.562;19.540;2024-02-26T15:02:16;512.90;1024.00
70151;DHT22;57517;43.562;19.540;2024-02-26T15:04:43;512.90;1024.00
70151;DHT22;57517;43.562;19.540;2024-02-26T15:07:10;512.90;1049.60
70151;DHT22;57517;43.562;19.540;2024-02-26T15:09:37;512.80;1100.80
70151;DHT22;57517;43.562;19.540;2024-02-26T15:12:04;512.70;1075.20
70151;DHT22;57517;43.562;19.540;2024-02-26T15:14:33;512.60;1075.20
70151;DHT22;57517;43.562;19.540;2024-02-26T15:16:58;512.60;1075.20
70151;DHT22;57517;43.562;19.540;2024-02-26T15:19:24;512.60;1075.20
70151;DHT22;57517;43.562;19.540;2024-02-26T15:21:50;512.60;1075.20
70151;DHT22;57517;43.562;19.540;2024-02-26T15:24:16;512.50;1075.20
70151;DHT22;57517;43.562;19.540;2024-02-26T15:26:43;512.50;1075.20
70151;DHT22;57517;43.562;19.540;2024-02-26T15:29:09;512.60;1049.60
70151;DHT22;57517;43.562;19.540;2024-02-26T15:31:35;512.60;1049.60
70151;DHT22;57517;43.562;19.540;2024-02-26T15:34:02;512.70;1075.20
70151;DHT22;57517;43.562;19.540;2024-02-26T15:36:29;512.80;1075.20
70151;DHT22;57517;43.562;19.540;2024-02-26T15:38:54;512.80;1049.60
70151;DHT22;57517;43.562;19.540;2024-02-26T15:41:20;512.80;1049.60
70151;DHT22;57517;43.562;19.540;2024-02-26T15:43:46;512.70;1075.20
70151;DHT22;57517;43.562;19.540;2024-02-26T15:46:12;512.80;1075.20
70151;DHT22;57517;43.562;19.540;2024-02-26T15:48:38;512.80;1075.20
70151;DHT22;57517;43.562;19.540;2024-02-26T15:51:04;512.70;1075.20
70151;DHT22;57517;43.562;19.540;2024-02-26T15:53:30;512.70;1126.40
70151;DHT22;57517;43.562;19.540;2024-02-26T15:55:56;512.80;1100.80
70151;DHT22;57517;43.562;19.540;2024-02-26T15:58:22;512.90;1075.20
70151;DHT22;57517;43.562;19.540;2024-02-26T16:00:49;512.80;1126.40
70151;DHT22;57517;43.562;19.540;2024-02-26T16:03:15;512.70;1152.00
70151;DHT22;57517;43.562;19.540;2024-02-26T16:05:41;512.60;1126.40
70151;DHT22;57517;43.562;19.540;2024-02-26T16:08:21;512.60;1126.40
70151;DHT22;57517;43.562;19.540;2024-02-26T16:10:48;512.60;1126.40
70151;DHT22;57517;43.562;19.540;2024-02-26T16:13:14;512.60;1126.40
70151;DHT22;57517;43.562;19.540;2024-02-26T16:15:45;512.60;1152.00
70151;DHT22;57517;43.562;19.540;2024-02-26T16:18:13;512.50;1177.60
70151;DHT22;57517;43.562;19.540;2024-02-26T16:20:39;512.30;1177.60
70151;DHT22;57517;43.562;19.540;2024-02-26T16:23:05;512.20;1177.60
70151;DHT22;57517;43.562;19.540;2024-02-26T16:25:34;512.10;1203.20
70151;DHT22;57517;43.562;19.540;2024-02-26T16:28:00;512.10;1203.20
70151;DHT22;57517;43.562;19.540;2024-02-26T16:30:26;512.10;1203.20
70151;DHT22;57517;43.562;19.540;2024-02-26T16:32:52;512.10;1228.80
70151;DHT22;57517;43.562;19.540;2024-02-26T16:35:18;512.10;1228.80
70151;DHT22;57517;43.562;19.540;2024-02-26T16:37:43;512.10;1228.80
70151;DHT22;57517;43.562;19.540;2024-02-26T16:40:13;512.10;1254.40
70151;DHT22;57517;43.562;19.540;2024-02-26T16:42:41;487.30;1254.40
70151;DHT22;57517;43.562;19.540;2024-02-26T16:45:09;487.10;1280.00
70151;DHT22;57517;43.562;19.540;2024-02-26T16:47:36;486.90;1280.00
70151;DHT22;57517;43.562;19.540;2024-02-26T16:50:02;486.90;1280.00
70151;DHT22;57517;43.562;19.540;2024-02-26T16:52:31;487.10;1280.00
70151;DHT22;57517;43.562;19.540;2024-02-26T16:54:57;487.10;1280.00
70151;DHT22;57517;43.562;19.540;2024-02-26T16:57:23;486.90;1305.60